sensor_id;sensor_type;location;lat;lon;timestamp;P1;durP1;ratioP1;P2;durP2;ratioP2
17059;SDS011;8646;49.716;9.266;2023-05-07T00:02:17;9.57;;;8.67;;
17059;SDS011;8646;49.716;9.266;2023-05-07T00:05:20;18.93;;;17.23;;
17059;SDS011;8646;49.716;9.266;2023-05-07T00:08:24;36.27;;;33.63;;
17059;SDS011;8646;49.716;9.266;2023-05-07T00:11:28;13.57;;;12.37;;
17059;SDS011;8646;49.716;9.266;2023-05-07T00:14:31;7.93;;;6.80;;
17059;SDS011;8646;49.716;9.266;2023-05-07T00:17:34;15.67;;;9.67;;
17059;SDS011;8646;49.716;9.266;2023-05-07T00:20:37;9.57;;;8.60;;
17059;SDS011;8646;49.716;9.266;2023-05-07T00:23:40;8.43;;;7.73;;
17059;SDS011;8646;49.716;9.266;2023-05-07T00:26:44;9.33;;;5.73;;
17059;SDS011;8646;49.716;9.266;2023-05-07T00:29:46;6.37;;;5.40;;
17059;SDS011;8646;49.716;9.266;2023-05-07T00:32:49;6.17;;;5.53;;
17059;SDS011;8646;49.716;9.266;2023-05-07T00:35:52;8.47;;;6.63;;
17059;SDS011;8646;49.716;9.266;2023-05-07T00:38:59;8.23;;;5.90;;
17059;SDS011;8646;49.716;9.266;2023-05-07T00:42:04;12.43;;;7.50;;
17059;SDS011;8646;49.716;9.266;2023-05-07T00:45:07;10.13;;;9.23;;
17059;SDS011;8646;49.716;9.266;2023-05-07T00:48:12;9.63;;;7.97;;
17059;SDS011;8646;49.716;9.266;2023-05-07T00:51:15;10.83;;;7.80;;
17059;SDS011;8646;49.716;9.266;2023-05-07T00:54:19;8.13;;;6.30;;
17059;SDS011;8646;49.716;9.266;2023-05-07T00:57:24;5.07;;;4.60;;
17059;SDS011;8646;49.716;9.266;2023-05-07T01:00:27;6.27;;;5.67;;
17059;SDS011;8646;49.716;9.266;2023-05-07T01:03:30;6.10;;;5.50;;
17059;SDS011;8646;49.716;9.266;2023-05-07T01:06:33;8.20;;;4.17;;
17059;SDS011;8646;49.716;9.266;2023-05-07T01:09:37;10.43;;;5.20;;
17059;SDS011;8646;49.716;9.266;2023-05-07T01:12:41;7.50;;;4.73;;
17059;SDS011;8646;49.716;9.266;2023-05-07T01:15:45;6.53;;;4.40;;
17059;SDS011;8646;49.716;9.266;2023-05-07T01:18:48;20.20;;;18.37;;
17059;SDS011;8646;49.716;9.266;2023-05-07T01:21:54;9.77;;;6.33;;
17059;SDS011;8646;49.716;9.266;2023-05-07T01:25:06;8.20;;;6.10;;
17059;SDS011;8646;49.716;9.266;2023-05-07T01:28:10;10.33;;;7.00;;
17059;SDS011;8646;49.716;9.266;2023-05-07T01:31:13;9.67;;;8.87;;
17059;SDS011;8646;49.716;9.266;2023-05-07T01:34:16;10.83;;;9.80;;
17059;SDS011;8646;49.716;9.266;2023-05-07T01:37:21;8.23;;;7.33;;
17059;SDS011;8646;49.716;9.266;2023-05-07T01:40:25;7.23;;;6.63;;
17059;SDS011;8646;49.716;9.266;2023-05-07T01:43:29;8.40;;;6.20;;
17059;SDS011;8646;49.716;9.266;2023-05-07T01:46:32;9.30;;;8.40;;
17059;SDS011;8646;49.716;9.266;2023-05-07T01:49:37;11.63;;;10.50;;
17059;SDS011;8646;49.716;9.266;2023-05-07T01:52:40;9.80;;;6.73;;
17059;SDS011;8646;49.716;9.266;2023-05-07T01:55:46;13.37;;;12.10;;
17059;SDS011;8646;49.716;9.266;2023-05-07T01:58:49;9.27;;;8.57;;
17059;SDS011;8646;49.716;9.266;2023-05-07T02:01:53;12.53;;;11.43;;
17059;SDS011;8646;49.716;9.266;2023-05-07T02:04:56;12.87;;;11.90;;
17059;SDS011;8646;49.716;9.266;2023-05-07T02:07:59;13.27;;;12.17;;
17059;SDS011;8646;49.716;9.266;2023-05-07T02:11:03;9.97;;;8.87;;
17059;SDS011;8646;49.716;9.266;2023-05-07T02:14:06;10.30;;;9.50;;
17059;SDS011;8646;49.716;9.266;2023-05-07T02:17:09;13.23;;;11.80;;
17059;SDS011;8646;49.716;9.266;2023-05-07T02:20:11;1999.90;;;999.90;;
17059;SDS011;8646;49.716;9.266;2023-05-07T02:23:14;1999.90;;;999.90;;
17059;SDS011;8646;49.716;9.266;2023-05-07T02:26:18;1999.90;;;999.90;;
17059;SDS011;8646;49.716;9.266;2023-05-07T02:29:22;1999.90;;;999.90;;
17059;SDS011;8646;49.716;9.266;2023-05-07T02:32:25;1999.90;;;999.90;;
17059;SDS011;8646;49.716;9.266;2023-05-07T02:35:28;1999.90;;;999.90;;
17059;SDS011;8646;49.716;9.266;2023-05-07T02:38:31;1999.90;;;999.90;;
17059;SDS011;8646;49.716;9.266;2023-05-07T02:41:35;1999.90;;;999.90;;
17059;SDS011;8646;49.716;9.266;2023-05-07T02:44:37;1999.90;;;999.90;;
17059;SDS011;8646;49.716;9.266;2023-05-07T02:47:40;1999.90;;;999.90;;
17059;SDS011;8646;49.716;9.266;2023-05-07T02:50:43;1999.90;;;999.90;;
17059;SDS011;8646;49.716;9.266;2023-05-07T02:53:45;1999.90;;;999.90;;
17059;SDS011;8646;49.716;9.266;2023-05-07T02:56:50;1999.90;;;999.90;;
17059;SDS011;8646;49.716;9.266;2023-05-07T02:59:52;1999.90;;;999.90;;
17059;SDS011;8646;49.716;9.266;2023-05-07T03:02:55;1999.90;;;999.90;;
17059;SDS011;8646;49.716;9.266;2023-05-07T03:05:58;1999.90;;;999.90;;
17059;SDS011;8646;49.716;9.266;2023-05-07T03:09:04;1999.90;;;999.90;;
17059;SDS011;8646;49.716;9.266;2023-05-07T03:12:08;1999.90;;;999.90;;
17059;SDS011;8646;49.716;9.266;2023-05-07T03:15:11;1999.90;;;999.90;;
17059;SDS011;8646;49.716;9.266;2023-05-07T03:18:14;1999.90;;;999.90;;
17059;SDS011;8646;49.716;9.266;2023-05-07T03:21:18;1999.90;;;999.90;;
17059;SDS011;8646;49.716;9.266;2023-05-07T03:24:21;1999.90;;;999.90;;
17059;SDS011;8646;49.716;9.266;2023-05-07T03:27:25;1999.90;;;999.90;;
17059;SDS011;8646;49.716;9.266;2023-05-07T03:30:28;1999.90;;;999.90;;
17059;SDS011;8646;49.716;9.266;2023-05-07T03:33:32;1999.90;;;999.90;;
17059;SDS011;8646;49.716;9.266;2023-05-07T03:36:35;1999.90;;;999.90;;
17059;SDS011;8646;49.716;9.266;2023-05-07T03:39:38;1999.90;;;999.90;;
17059;SDS011;8646;49.716;9.266;2023-05-07T03:42:42;1999.90;;;999.90;;
17059;SDS011;8646;49.716;9.266;2023-05-07T03:45:45;1999.90;;;999.90;;
17059;SDS011;8646;49.716;9.266;2023-05-07T03:48:50;1999.90;;;999.90;;
17059;SDS011;8646;49.716;9.266;2023-05-07T03:51:53;1999.90;;;999.90;;
17059;SDS011;8646;49.716;9.266;2023-05-07T03:54:56;1999.90;;;999.90;;
17059;SDS011;8646;49.716;9.266;2023-05-07T03:58:00;1999.90;;;999.90;;
17059;SDS011;8646;49.716;9.266;2023-05-07T04:01:03;1999.90;;;999.90;;
17059;SDS011;8646;49.716;9.266;2023-05-07T04:04:06;1999.90;;;999.90;;
17059;SDS011;8646;49.716;9.266;2023-05-07T04:07:09;1999.90;;;999.90;;
17059;SDS011;8646;49.716;9.266;2023-05-07T04:10:12;1999.90;;;999.90;;
17059;SDS011;8646;49.716;9.266;2023-05-07T04:13:16;1999.90;;;999.90;;
17059;SDS011;8646;49.716;9.266;2023-05-07T04:16:19;1999.90;;;999.90;;
17059;SDS011;8646;49.716;9.266;2023-05-07T04:19:22;1999.90;;;999.90;;
17059;SDS011;8646;49.716;9.266;2023-05-07T04:22:25;1999.90;;;999.90;;
17059;SDS011;8646;49.716;9.266;2023-05-07T04:25:28;1999.90;;;999.90;;
17059;SDS011;8646;49.716;9.266;2023-05-07T04:28:32;1999.90;;;999.90;;
17059;SDS011;8646;49.716;9.266;2023-05-07T04:31:36;1999.90;;;999.90;;
17059;SDS011;8646;49.716;9.266;2023-05-07T04:34:39;1999.90;;;999.90;;
17059;SDS011;8646;49.716;9.266;2023-05-07T04:37:42;1999.90;;;999.90;;
17059;SDS011;8646;49.716;9.266;2023-05-07T04:40:49;1999.90;;;999.90;;
17059;SDS011;8646;49.716;9.266;2023-05-07T04:43:53;1999.90;;;999.90;;
17059;SDS011;8646;49.716;9.266;2023-05-07T04:46:56;1999.90;;;999.90;;
17059;SDS011;8646;49.716;9.266;2023-05-07T04:49:59;1999.90;;;999.90;;
17059;SDS011;8646;49.716;9.266;2023-05-07T04:53:02;1999.90;;;999.90;;
17059;SDS011;8646;49.716;9.266;2023-05-07T04:56:08;1999.90;;;999.90;;
17059;SDS011;8646;49.716;9.266;2023-05-07T04:59:12;748.00;;;320.63;;
17059;SDS011;8646;49.716;9.266;2023-05-07T05:02:15;130.50;;;120.40;;
17059;SDS011;8646;49.716;9.266;2023-05-07T05:05:21;275.47;;;253.57;;
17059;SDS011;8646;49.716;9.266;2023-05-07T05:08:23;300.53;;;276.70;;
17059;SDS011;8646;49.716;9.266;2023-05-07T05:11:26;453.17;;;415.07;;
17059;SDS011;8646;49.716;9.266;2023-05-07T05:14:30;581.57;;;528.60;;
17059;SDS011;8646;49.716;9.266;2023-05-07T05:17:33;397.53;;;362.27;;
17059;SDS011;8646;49.716;9.266;2023-05-07T05:20:36;377.87;;;342.30;;
17059;SDS011;8646;49.716;9.266;2023-05-07T05:23:38;380.17;;;344.70;;
17059;SDS011;8646;49.716;9.266;2023-05-07T05:26:41;354.60;;;322.17;;
17059;SDS011;8646;49.716;9.266;2023-05-07T05:29:46;601.70;;;545.57;;
17059;SDS011;8646;49.716;9.266;2023-05-07T05:32:48;469.37;;;423.83;;
17059;SDS011;8646;49.716;9.266;2023-05-07T05:35:51;449.63;;;408.10;;
17059;SDS011;8646;49.716;9.266;2023-05-07T05:38:54;367.07;;;335.77;;
17059;SDS011;8646;49.716;9.266;2023-05-07T05:41:57;539.53;;;491.30;;
17059;SDS011;8646;49.716;9.266;2023-05-07T05:45:02;403.77;;;368.07;;
17059;SDS011;8646;49.716;9.266;2023-05-07T05:48:06;469.53;;;427.03;;
17059;SDS011;8646;49.716;9.266;2023-05-07T05:51:09;487.63;;;443.83;;
17059;SDS011;8646;49.716;9.266;2023-05-07T05:54:12;399.27;;;365.50;;
17059;SDS011;8646;49.716;9.266;2023-05-07T05:57:15;735.03;;;662.63;;
17059;SDS011;8646;49.716;9.266;2023-05-07T06:00:19;547.90;;;494.50;;
17059;SDS011;8646;49.716;9.266;2023-05-07T06:03:23;577.83;;;526.60;;
17059;SDS011;8646;49.716;9.266;2023-05-07T06:06:26;596.50;;;543.40;;
17059;SDS011;8646;49.716;9.266;2023-05-07T06:09:29;563.37;;;514.77;;
17059;SDS011;8646;49.716;9.266;2023-05-07T06:12:32;570.53;;;522.23;;
17059;SDS011;8646;49.716;9.266;2023-05-07T06:15:36;640.63;;;585.23;;
17059;SDS011;8646;49.716;9.266;2023-05-07T06:18:39;776.53;;;705.47;;
17059;SDS011;8646;49.716;9.266;2023-05-07T06:21:42;848.97;;;771.27;;
17059;SDS011;8646;49.716;9.266;2023-05-07T06:24:44;807.63;;;734.67;;
17059;SDS011;8646;49.716;9.266;2023-05-07T06:27:47;841.27;;;764.00;;
17059;SDS011;8646;49.716;9.266;2023-05-07T06:30:51;834.60;;;758.23;;
17059;SDS011;8646;49.716;9.266;2023-05-07T06:33:54;1999.90;;;999.90;;
17059;SDS011;8646;49.716;9.266;2023-05-07T06:36:57;1999.90;;;999.90;;
17059;SDS011;8646;49.716;9.266;2023-05-07T06:39:59;1999.90;;;999.90;;
17059;SDS011;8646;49.716;9.266;2023-05-07T06:43:02;1999.90;;;999.90;;
17059;SDS011;8646;49.716;9.266;2023-05-07T06:46:06;1999.90;;;999.90;;
17059;SDS011;8646;49.716;9.266;2023-05-07T06:49:09;1999.90;;;999.90;;
17059;SDS011;8646;49.716;9.266;2023-05-07T06:52:12;1999.90;;;999.90;;
17059;SDS011;8646;49.716;9.266;2023-05-07T06:55:14;1999.90;;;999.90;;
17059;SDS011;8646;49.716;9.266;2023-05-07T06:58:17;1999.90;;;999.90;;
17059;SDS011;8646;49.716;9.266;2023-05-07T07:01:21;1999.90;;;999.90;;
17059;SDS011;8646;49.716;9.266;2023-05-07T07:04:24;1999.90;;;999.90;;
17059;SDS011;8646;49.716;9.266;2023-05-07T07:07:27;1999.90;;;999.90;;
17059;SDS011;8646;49.716;9.266;2023-05-07T07:10:30;1999.90;;;999.90;;
17059;SDS011;8646;49.716;9.266;2023-05-07T07:13:33;1999.90;;;999.90;;
17059;SDS011;8646;49.716;9.266;2023-05-07T07:16:37;1999.90;;;999.90;;
17059;SDS011;8646;49.716;9.266;2023-05-07T07:19:40;1999.90;;;999.90;;
17059;SDS011;8646;49.716;9.266;2023-05-07T07:22:43;1999.90;;;999.90;;
17059;SDS011;8646;49.716;9.266;2023-05-07T07:25:46;1999.90;;;999.90;;
17059;SDS011;8646;49.716;9.266;2023-05-07T07:28:49;1999.90;;;999.90;;
17059;SDS011;8646;49.716;9.266;2023-05-07T07:31:53;1999.90;;;999.90;;
17059;SDS011;8646;49.716;9.266;2023-05-07T07:34:56;1999.90;;;999.90;;
17059;SDS011;8646;49.716;9.266;2023-05-07T07:37:59;1999.90;;;999.90;;
17059;SDS011;8646;49.716;9.266;2023-05-07T07:41:02;1999.90;;;999.90;;
17059;SDS011;8646;49.716;9.266;2023-05-07T07:44:05;1999.90;;;999.90;;
17059;SDS011;8646;49.716;9.266;2023-05-07T07:47:10;1999.90;;;999.90;;
17059;SDS011;8646;49.716;9.266;2023-05-07T07:50:13;1999.90;;;999.90;;
17059;SDS011;8646;49.716;9.266;2023-05-07T07:53:39;1999.90;;;999.90;;
17059;SDS011;8646;49.716;9.266;2023-05-07T07:56:42;1999.90;;;999.90;;
17059;SDS011;8646;49.716;9.266;2023-05-07T07:59:45;1999.90;;;999.90;;
17059;SDS011;8646;49.716;9.266;2023-05-07T08:02:49;1999.90;;;999.90;;
17059;SDS011;8646;49.716;9.266;2023-05-07T08:05:52;1999.90;;;999.90;;
17059;SDS011;8646;49.716;9.266;2023-05-07T08:08:56;1999.90;;;999.90;;
17059;SDS011;8646;49.716;9.266;2023-05-07T08:11:59;1999.90;;;999.90;;
17059;SDS011;8646;49.716;9.266;2023-05-07T08:15:02;1999.90;;;999.90;;
17059;SDS011;8646;49.716;9.266;2023-05-07T08:18:07;1999.90;;;999.90;;
17059;SDS011;8646;49.716;9.266;2023-05-07T08:21:11;1999.90;;;999.90;;
17059;SDS011;8646;49.716;9.266;2023-05-07T08:24:13;1999.90;;;999.90;;
17059;SDS011;8646;49.716;9.266;2023-05-07T08:27:16;1999.90;;;999.90;;
17059;SDS011;8646;49.716;9.266;2023-05-07T08:30:19;1999.90;;;999.90;;
17059;SDS011;8646;49.716;9.266;2023-05-07T08:33:26;1999.90;;;999.90;;
17059;SDS011;8646;49.716;9.266;2023-05-07T08:36:28;1999.90;;;999.90;;
17059;SDS011;8646;49.716;9.266;2023-05-07T08:39:31;1999.90;;;999.90;;
17059;SDS011;8646;49.716;9.266;2023-05-07T08:42:35;1999.90;;;999.90;;
17059;SDS011;8646;49.716;9.266;2023-05-07T08:45:39;1999.90;;;999.90;;
17059;SDS011;8646;49.716;9.266;2023-05-07T08:48:44;1999.90;;;999.90;;
17059;SDS011;8646;49.716;9.266;2023-05-07T08:51:46;1999.90;;;999.90;;
17059;SDS011;8646;49.716;9.266;2023-05-07T08:54:49;1999.90;;;999.90;;
17059;SDS011;8646;49.716;9.266;2023-05-07T08:57:52;1999.90;;;999.90;;
17059;SDS011;8646;49.716;9.266;2023-05-07T09:00:55;1999.90;;;999.90;;
17059;SDS011;8646;49.716;9.266;2023-05-07T09:03:59;1999.90;;;999.90;;
17059;SDS011;8646;49.716;9.266;2023-05-07T09:07:02;1999.90;;;999.90;;
17059;SDS011;8646;49.716;9.266;2023-05-07T09:10:07;1999.90;;;999.90;;
17059;SDS011;8646;49.716;9.266;2023-05-07T09:13:11;1999.90;;;999.90;;
17059;SDS011;8646;49.716;9.266;2023-05-07T09:16:16;704.90;;;642.23;;
17059;SDS011;8646;49.716;9.266;2023-05-07T09:19:23;672.63;;;615.60;;
17059;SDS011;8646;49.716;9.266;2023-05-07T09:22:26;644.23;;;589.10;;
17059;SDS011;8646;49.716;9.266;2023-05-07T09:25:29;569.77;;;522.83;;
17059;SDS011;8646;49.716;9.266;2023-05-07T09:28:33;575.63;;;528.23;;
17059;SDS011;8646;49.716;9.266;2023-05-07T09:31:36;522.77;;;480.77;;
17059;SDS011;8646;49.716;9.266;2023-05-07T09:34:41;537.10;;;493.73;;
17059;SDS011;8646;49.716;9.266;2023-05-07T09:37:44;445.20;;;410.97;;
17059;SDS011;8646;49.716;9.266;2023-05-07T09:40:48;526.00;;;483.80;;
17059;SDS011;8646;49.716;9.266;2023-05-07T09:44:04;498.43;;;458.47;;
17059;SDS011;8646;49.716;9.266;2023-05-07T09:47:10;397.10;;;366.97;;
17059;SDS011;8646;49.716;9.266;2023-05-07T09:50:20;415.27;;;383.93;;
17059;SDS011;8646;49.716;9.266;2023-05-07T09:53:28;398.27;;;368.13;;
17059;SDS011;8646;49.716;9.266;2023-05-07T09:56:32;400.97;;;370.60;;
17059;SDS011;8646;49.716;9.266;2023-05-07T09:59:37;389.07;;;360.17;;
17059;SDS011;8646;49.716;9.266;2023-05-07T10:02:40;291.53;;;271.00;;
17059;SDS011;8646;49.716;9.266;2023-05-07T10:05:50;320.33;;;297.33;;
17059;SDS011;8646;49.716;9.266;2023-05-07T10:08:54;278.60;;;258.80;;
17059;SDS011;8646;49.716;9.266;2023-05-07T10:11:57;272.87;;;253.73;;
17059;SDS011;8646;49.716;9.266;2023-05-07T10:15:02;240.97;;;224.23;;
17059;SDS011;8646;49.716;9.266;2023-05-07T10:18:07;336.43;;;311.17;;
17059;SDS011;8646;49.716;9.266;2023-05-07T10:21:13;259.77;;;241.63;;
17059;SDS011;8646;49.716;9.266;2023-05-07T10:24:20;262.43;;;244.17;;
17059;SDS011;8646;49.716;9.266;2023-05-07T10:27:26;318.63;;;295.77;;
17059;SDS011;8646;49.716;9.266;2023-05-07T10:30:31;350.63;;;325.43;;
17059;SDS011;8646;49.716;9.266;2023-05-07T10:33:44;359.87;;;333.30;;
17059;SDS011;8646;49.716;9.266;2023-05-07T10:36:50;362.33;;;335.70;;
17059;SDS011;8646;49.716;9.266;2023-05-07T10:39:54;380.23;;;351.87;;
17059;SDS011;8646;49.716;9.266;2023-05-07T10:42:59;384.47;;;355.77;;
17059;SDS011;8646;49.716;9.266;2023-05-07T10:46:10;307.57;;;284.50;;
17059;SDS011;8646;49.716;9.266;2023-05-07T10:49:13;269.00;;;249.73;;
17059;SDS011;8646;49.716;9.266;2023-05-07T10:52:19;201.83;;;187.63;;
17059;SDS011;8646;49.716;9.266;2023-05-07T10:55:24;116.67;;;108.60;;
17059;SDS011;8646;49.716;9.266;2023-05-07T10:58:27;113.10;;;104.97;;
17059;SDS011;8646;49.716;9.266;2023-05-07T11:01:49;94.70;;;87.93;;
17059;SDS011;8646;49.716;9.266;2023-05-07T11:08:24;141.07;;;131.13;;
17059;SDS011;8646;49.716;9.266;2023-05-07T11:14:48;51.23;;;47.43;;
17059;SDS011;8646;49.716;9.266;2023-05-07T11:17:53;41.23;;;37.80;;
17059;SDS011;8646;49.716;9.266;2023-05-07T11:20:57;36.23;;;33.57;;
17059;SDS011;8646;49.716;9.266;2023-05-07T11:24:03;32.20;;;29.57;;
17059;SDS011;8646;49.716;9.266;2023-05-07T11:27:06;44.20;;;40.37;;
17059;SDS011;8646;49.716;9.266;2023-05-07T11:30:10;29.23;;;26.83;;
17059;SDS011;8646;49.716;9.266;2023-05-07T11:33:18;26.57;;;24.27;;
17059;SDS011;8646;49.716;9.266;2023-05-07T11:36:22;23.50;;;21.50;;
17059;SDS011;8646;49.716;9.266;2023-05-07T11:39:29;26.67;;;24.47;;
17059;SDS011;8646;49.716;9.266;2023-05-07T11:42:34;46.20;;;42.73;;
17059;SDS011;8646;49.716;9.266;2023-05-07T11:45:39;16.73;;;15.13;;
17059;SDS011;8646;49.716;9.266;2023-05-07T11:48:42;24.97;;;22.70;;
17059;SDS011;8646;49.716;9.266;2023-05-07T11:51:45;19.47;;;17.80;;
17059;SDS011;8646;49.716;9.266;2023-05-07T11:54:50;17.97;;;16.23;;
17059;SDS011;8646;49.716;9.266;2023-05-07T11:57:53;18.07;;;16.50;;
17059;SDS011;8646;49.716;9.266;2023-05-07T12:00:59;19.13;;;17.67;;
17059;SDS011;8646;49.716;9.266;2023-05-07T12:04:02;12.60;;;11.50;;
17059;SDS011;8646;49.716;9.266;2023-05-07T12:07:10;15.20;;;13.80;;
17059;SDS011;8646;49.716;9.266;2023-05-07T12:10:16;16.53;;;15.23;;
17059;SDS011;8646;49.716;9.266;2023-05-07T12:13:21;14.83;;;12.30;;
17059;SDS011;8646;49.716;9.266;2023-05-07T12:16:26;15.07;;;13.77;;
17059;SDS011;8646;49.716;9.266;2023-05-07T12:19:30;13.27;;;12.17;;
17059;SDS011;8646;49.716;9.266;2023-05-07T12:22:33;17.30;;;15.57;;
17059;SDS011;8646;49.716;9.266;2023-05-07T12:25:38;13.33;;;12.30;;
17059;SDS011;8646;49.716;9.266;2023-05-07T12:28:47;14.63;;;13.33;;
17059;SDS011;8646;49.716;9.266;2023-05-07T12:31:51;11.63;;;10.63;;
17059;SDS011;8646;49.716;9.266;2023-05-07T12:34:54;18.03;;;16.67;;
17059;SDS011;8646;49.716;9.266;2023-05-07T12:37:57;13.50;;;12.30;;
17059;SDS011;8646;49.716;9.266;2023-05-07T12:41:07;17.63;;;16.13;;
17059;SDS011;8646;49.716;9.266;2023-05-07T12:44:11;50.40;;;46.27;;
17059;SDS011;8646;49.716;9.266;2023-05-07T12:47:14;10.10;;;9.10;;
17059;SDS011;8646;49.716;9.266;2023-05-07T12:50:18;12.00;;;11.07;;
17059;SDS011;8646;49.716;9.266;2023-05-07T12:53:22;17.27;;;15.90;;
17059;SDS011;8646;49.716;9.266;2023-05-07T12:56:27;15.13;;;13.77;;
17059;SDS011;8646;49.716;9.266;2023-05-07T12:59:35;12.80;;;11.07;;
17059;SDS011;8646;49.716;9.266;2023-05-07T13:02:44;16.03;;;14.67;;
17059;SDS011;8646;49.716;9.266;2023-05-07T13:05:47;17.63;;;16.10;;
17059;SDS011;8646;49.716;9.266;2023-05-07T13:08:50;10.43;;;9.53;;
17059;SDS011;8646;49.716;9.266;2023-05-07T13:11:54;9.07;;;8.13;;
17059;SDS011;8646;49.716;9.266;2023-05-07T13:14:57;9.87;;;9.00;;
17059;SDS011;8646;49.716;9.266;2023-05-07T13:18:00;10.73;;;9.73;;
17059;SDS011;8646;49.716;9.266;2023-05-07T13:21:04;8.80;;;8.10;;
17059;SDS011;8646;49.716;9.266;2023-05-07T13:24:07;12.90;;;11.67;;
17059;SDS011;8646;49.716;9.266;2023-05-07T13:27:12;6.60;;;5.77;;
17059;SDS011;8646;49.716;9.266;2023-05-07T13:30:14;6.47;;;5.87;;
17059;SDS011;8646;49.716;9.266;2023-05-07T13:33:17;7.93;;;7.23;;
17059;SDS011;8646;49.716;9.266;2023-05-07T13:36:20;5.90;;;5.37;;
17059;SDS011;8646;49.716;9.266;2023-05-07T13:39:23;6.40;;;5.77;;
17059;SDS011;8646;49.716;9.266;2023-05-07T13:42:27;6.37;;;5.77;;
17059;SDS011;8646;49.716;9.266;2023-05-07T13:45:30;7.43;;;6.73;;
17059;SDS011;8646;49.716;9.266;2023-05-07T13:48:33;14.73;;;13.53;;
17059;SDS011;8646;49.716;9.266;2023-05-07T13:51:36;6.50;;;5.90;;
17059;SDS011;8646;49.716;9.266;2023-05-07T13:54:39;7.40;;;6.67;;
17059;SDS011;8646;49.716;9.266;2023-05-07T13:57:43;5.07;;;4.23;;
17059;SDS011;8646;49.716;9.266;2023-05-07T14:00:46;5.73;;;5.23;;
17059;SDS011;8646;49.716;9.266;2023-05-07T14:03:49;9.47;;;8.70;;
17059;SDS011;8646;49.716;9.266;2023-05-07T14:06:51;12.63;;;11.50;;
17059;SDS011;8646;49.716;9.266;2023-05-07T14:09:55;10.20;;;9.23;;
17059;SDS011;8646;49.716;9.266;2023-05-07T14:13:00;11.30;;;10.40;;
17059;SDS011;8646;49.716;9.266;2023-05-07T14:16:03;11.87;;;10.87;;
17059;SDS011;8646;49.716;9.266;2023-05-07T14:19:06;9.60;;;8.83;;
17059;SDS011;8646;49.716;9.266;2023-05-07T14:22:09;5.73;;;5.17;;
17059;SDS011;8646;49.716;9.266;2023-05-07T14:25:12;9.80;;;9.00;;
17059;SDS011;8646;49.716;9.266;2023-05-07T14:28:16;7.60;;;6.23;;
17059;SDS011;8646;49.716;9.266;2023-05-07T14:31:20;6.03;;;5.53;;
17059;SDS011;8646;49.716;9.266;2023-05-07T14:34:23;5.50;;;5.00;;
17059;SDS011;8646;49.716;9.266;2023-05-07T14:37:26;6.13;;;5.20;;
17059;SDS011;8646;49.716;9.266;2023-05-07T14:40:28;7.83;;;7.03;;
17059;SDS011;8646;49.716;9.266;2023-05-07T14:43:32;6.93;;;6.33;;
17059;SDS011;8646;49.716;9.266;2023-05-07T14:46:35;10.73;;;9.83;;
17059;SDS011;8646;49.716;9.266;2023-05-07T14:49:39;12.20;;;11.17;;
17059;SDS011;8646;49.716;9.266;2023-05-07T14:52:42;6.67;;;5.97;;
17059;SDS011;8646;49.716;9.266;2023-05-07T14:55:45;6.30;;;5.70;;
17059;SDS011;8646;49.716;9.266;2023-05-07T14:58:49;8.50;;;7.60;;
17059;SDS011;8646;49.716;9.266;2023-05-07T15:01:51;9.90;;;9.20;;
17059;SDS011;8646;49.716;9.266;2023-05-07T15:04:55;6.20;;;5.70;;
17059;SDS011;8646;49.716;9.266;2023-05-07T15:07:57;14.73;;;13.63;;
17059;SDS011;8646;49.716;9.266;2023-05-07T15:11:01;16.60;;;15.30;;
17059;SDS011;8646;49.716;9.266;2023-05-07T15:14:05;16.20;;;14.73;;
17059;SDS011;8646;49.716;9.266;2023-05-07T15:17:08;6.90;;;6.10;;
17059;SDS011;8646;49.716;9.266;2023-05-07T15:20:11;12.23;;;11.23;;
17059;SDS011;8646;49.716;9.266;2023-05-07T15:23:15;9.70;;;8.80;;
17059;SDS011;8646;49.716;9.266;2023-05-07T15:26:17;10.53;;;9.53;;
17059;SDS011;8646;49.716;9.266;2023-05-07T15:29:21;8.70;;;7.77;;
17059;SDS011;8646;49.716;9.266;2023-05-07T15:32:24;8.43;;;7.73;;
17059;SDS011;8646;49.716;9.266;2023-05-07T15:35:27;8.30;;;7.60;;
17059;SDS011;8646;49.716;9.266;2023-05-07T15:38:30;9.27;;;8.47;;
17059;SDS011;8646;49.716;9.266;2023-05-07T15:41:33;13.90;;;12.70;;
17059;SDS011;8646;49.716;9.266;2023-05-07T15:44:40;9.07;;;7.90;;
17059;SDS011;8646;49.716;9.266;2023-05-07T15:47:43;11.73;;;10.83;;
17059;SDS011;8646;49.716;9.266;2023-05-07T15:50:46;12.30;;;11.10;;
17059;SDS011;8646;49.716;9.266;2023-05-07T15:53:48;13.53;;;12.43;;
17059;SDS011;8646;49.716;9.266;2023-05-07T15:56:52;20.83;;;19.23;;
17059;SDS011;8646;49.716;9.266;2023-05-07T15:59:56;13.67;;;12.53;;
17059;SDS011;8646;49.716;9.266;2023-05-07T16:03:00;15.90;;;14.53;;
17059;SDS011;8646;49.716;9.266;2023-05-07T16:06:03;15.07;;;13.73;;
17059;SDS011;8646;49.716;9.266;2023-05-07T16:09:06;19.67;;;18.07;;
17059;SDS011;8646;49.716;9.266;2023-05-07T16:12:10;20.03;;;18.53;;
17059;SDS011;8646;49.716;9.266;2023-05-07T16:15:14;24.13;;;22.03;;
17059;SDS011;8646;49.716;9.266;2023-05-07T16:18:17;103.97;;;96.63;;
17059;SDS011;8646;49.716;9.266;2023-05-07T16:21:20;97.03;;;90.07;;
17059;SDS011;8646;49.716;9.266;2023-05-07T16:24:24;101.43;;;93.83;;
17059;SDS011;8646;49.716;9.266;2023-05-07T16:27:26;153.30;;;142.13;;
17059;SDS011;8646;49.716;9.266;2023-05-07T16:30:31;204.73;;;189.97;;
17059;SDS011;8646;49.716;9.266;2023-05-07T16:33:34;266.70;;;247.10;;
17059;SDS011;8646;49.716;9.266;2023-05-07T16:36:37;364.20;;;337.20;;
17059;SDS011;8646;49.716;9.266;2023-05-07T16:39:39;463.47;;;428.30;;
17059;SDS011;8646;49.716;9.266;2023-05-07T16:42:42;596.80;;;548.70;;
17059;SDS011;8646;49.716;9.266;2023-05-07T16:45:46;698.93;;;637.47;;
17059;SDS011;8646;49.716;9.266;2023-05-07T16:48:50;785.47;;;711.67;;
17059;SDS011;8646;49.716;9.266;2023-05-07T16:51:55;1999.90;;;999.90;;
17059;SDS011;8646;49.716;9.266;2023-05-07T16:54:58;1999.90;;;999.90;;
17059;SDS011;8646;49.716;9.266;2023-05-07T16:58:02;1999.90;;;999.90;;
17059;SDS011;8646;49.716;9.266;2023-05-07T17:01:07;1999.90;;;999.90;;
17059;SDS011;8646;49.716;9.266;2023-05-07T17:04:11;254.57;;;236.17;;
17059;SDS011;8646;49.716;9.266;2023-05-07T17:07:14;539.20;;;491.00;;
17059;SDS011;8646;49.716;9.266;2023-05-07T17:10:17;622.83;;;568.07;;
17059;SDS011;8646;49.716;9.266;2023-05-07T17:13:21;694.93;;;631.17;;
17059;SDS011;8646;49.716;9.266;2023-05-07T17:16:25;816.10;;;737.20;;
17059;SDS011;8646;49.716;9.266;2023-05-07T17:19:28;1999.90;;;999.90;;
17059;SDS011;8646;49.716;9.266;2023-05-07T17:22:31;1999.90;;;999.90;;
17059;SDS011;8646;49.716;9.266;2023-05-07T17:25:33;1999.90;;;999.90;;
17059;SDS011;8646;49.716;9.266;2023-05-07T17:28:37;1999.90;;;999.90;;
17059;SDS011;8646;49.716;9.266;2023-05-07T17:31:41;1999.90;;;999.90;;
17059;SDS011;8646;49.716;9.266;2023-05-07T17:34:44;1999.90;;;999.90;;
17059;SDS011;8646;49.716;9.266;2023-05-07T17:37:47;103.03;;;92.80;;
17059;SDS011;8646;49.716;9.266;2023-05-07T17:40:52;944.87;;;171.97;;
17059;SDS011;8646;49.716;9.266;2023-05-07T17:43:55;5.00;;;1.67;;
17059;SDS011;8646;49.716;9.266;2023-05-07T17:47:00;762.80;;;157.27;;
17059;SDS011;8646;49.716;9.266;2023-05-07T17:50:04;4.00;;;1.90;;
17059;SDS011;8646;49.716;9.266;2023-05-07T17:53:11;7.73;;;1.90;;
17059;SDS011;8646;49.716;9.266;2023-05-07T17:56:15;74.40;;;40.30;;
17059;SDS011;8646;49.716;9.266;2023-05-07T17:59:17;1999.90;;;999.90;;
17059;SDS011;8646;49.716;9.266;2023-05-07T18:02:22;574.53;;;525.80;;